createdAt,value
2023-02-27T00:00:31.064Z,98600.97
2023-02-27T00:03:01.155Z,98600.84
2023-02-27T00:05:31.298Z,98604.97
2023-02-27T00:08:03.989Z,98606.81
2023-02-27T00:10:34.071Z,98611.44
2023-02-27T00:13:04.103Z,98609.88
2023-02-27T00:15:34.204Z,98610.25
2023-02-27T00:18:04.285Z,98611.81
2023-02-27T00:20:38.267Z,98605.59
2023-02-27T00:23:11.506Z,98605.28
2023-02-27T00:25:41.877Z,98606.06
2023-02-27T00:28:11.886Z,98607.16
2023-02-27T00:30:42.637Z,98610.25
2023-02-27T00:33:13.095Z,98602.06
2023-02-27T00:35:44.487Z,98606.66
2023-02-27T00:38:17.171Z,98612.09
2023-02-27T00:40:47.249Z,98604.31
2023-02-27T00:43:17.795Z,98615.53
2023-02-27T00:45:47.854Z,98605.78
2023-02-27T00:48:18.230Z,98603.03
2023-02-27T00:50:48.235Z,98599.41
2023-02-27T00:53:20.982Z,98591.59
2023-02-27T00:55:51.052Z,98589.97
2023-02-27T00:58:21.104Z,98586.00
2023-02-27T01:00:51.169Z,98585.94
2023-02-27T01:03:21.296Z,98582.78
2023-02-27T01:05:51.350Z,98578.50
2023-02-27T01:08:24.144Z,98587.38
2023-02-27T01:10:54.185Z,98586.56
2023-02-27T01:13:24.244Z,98591.91
2023-02-27T01:15:54.315Z,98586.47
2023-02-27T01:18:24.360Z,98595.03
2023-02-27T01:20:55.634Z,98587.69
2023-02-27T01:23:28.387Z,98590.31
2023-02-27T01:25:58.390Z,98591.41
2023-02-27T01:28:30.270Z,98590.25
2023-02-27T01:31:00.345Z,98592.41
2023-02-27T01:33:30.436Z,98591.16
2023-02-27T01:36:03.158Z,98589.06
2023-02-27T01:38:35.855Z,98595.91
2023-02-27T01:41:07.459Z,98590.06
2023-02-27T01:43:55.660Z,98597.06
2023-02-27T01:46:26.088Z,98593.94
2023-02-27T01:48:59.749Z,98588.53
2023-02-27T01:51:35.064Z,98593.50
2023-02-27T01:54:09.729Z,98590.03
2023-02-27T01:56:39.954Z,98593.16
2023-02-27T01:59:12.433Z,98597.34
2023-02-27T02:01:43.254Z,98598.56
2023-02-27T02:04:18.006Z,98597.72
2023-02-27T02:06:50.941Z,98603.50
2023-02-27T02:09:24.881Z,98611.91
2023-02-27T02:11:55.558Z,98612.63
2023-02-27T02:14:25.625Z,98605.66
2023-02-27T02:17:07.873Z,98611.78
2023-02-27T02:19:56.581Z,98623.75
2023-02-27T02:23:05.889Z,98610.22
2023-02-27T02:26:02.272Z,98622.19
2023-02-27T02:28:53.514Z,98627.09
2023-02-27T02:31:56.238Z,98617.38
2023-02-27T02:34:49.833Z,98616.09
2023-02-27T02:38:00.886Z,98624.25
2023-02-27T02:40:39.599Z,98621.16
2023-02-27T02:43:15.644Z,98622.97
2023-02-27T02:45:52.397Z,98619.00
2023-02-27T02:48:29.407Z,98625.13
2023-02-27T02:51:05.021Z,98620.34
2023-02-27T02:53:41.183Z,98624.94
2023-02-27T02:56:19.437Z,98631.03
2023-02-27T02:58:55.162Z,98627.88
2023-02-27T03:01:29.894Z,98639.88
2023-02-27T03:04:07.097Z,98630.19
2023-02-27T03:06:40.246Z,98637.16
2023-02-27T03:09:15.240Z,98645.13
2023-02-27T03:11:50.622Z,98643.50
2023-02-27T03:14:26.140Z,98642.25
2023-02-27T03:16:57.901Z,98640.00
2023-02-27T03:19:30.879Z,98634.72
2023-02-27T03:22:05.394Z,98635.94
2023-02-27T03:24:38.215Z,98648.41
2023-02-27T03:27:11.972Z,98642.34
2023-02-27T03:29:45.884Z,98646.00
2023-02-27T03:32:20.781Z,98641.88
2023-02-27T03:34:51.302Z,98647.84
2023-02-27T03:37:28.226Z,98649.91
2023-02-27T03:40:04.454Z,98657.09
2023-02-27T03:42:40.054Z,98657.16
2023-02-27T03:45:21.806Z,98651.81
2023-02-27T03:47:52.083Z,98655.84
2023-02-27T03:50:22.692Z,98659.78
2023-02-27T03:52:53.147Z,98659.47
2023-02-27T03:55:25.081Z,98663.91
2023-02-27T03:57:58.804Z,98670.94
2023-02-27T04:00:29.329Z,98666.69
2023-02-27T04:03:01.644Z,98676.09
2023-02-27T04:05:33.380Z,98670.34
2023-02-27T04:08:19.670Z,98665.88
2023-02-27T04:11:07.399Z,98679.56
2023-02-27T04:13:53.969Z,98678.78
2023-02-27T04:16:49.229Z,98680.69
2023-02-27T04:19:41.480Z,98678.06
2023-02-27T04:22:20.272Z,98681.25
2023-02-27T04:24:57.961Z,98684.44
2023-02-27T04:27:35.677Z,98684.09
2023-02-27T04:30:17.821Z,98681.41
2023-02-27T04:32:54.599Z,98686.09
2023-02-27T04:35:29.428Z,98686.56
2023-02-27T04:38:03.712Z,98691.97
2023-02-27T04:40:37.782Z,98692.50
2023-02-27T04:43:10.495Z,98691.34
2023-02-27T04:45:44.224Z,98688.69
2023-02-27T04:48:20.124Z,98691.75
2023-02-27T04:50:54.447Z,98698.03
2023-02-27T04:53:28.653Z,98692.66
2023-02-27T04:56:00.778Z,98687.25
2023-02-27T04:58:35.256Z,98698.56
2023-02-27T05:01:12.503Z,98701.31
2023-02-27T05:03:46.306Z,98701.00
2023-02-27T05:06:18.361Z,98701.41
2023-02-27T05:08:54.639Z,98695.22
2023-02-27T05:11:28.971Z,98706.06
2023-02-27T05:14:02.725Z,98698.75
2023-02-27T05:16:40.078Z,98705.03
2023-02-27T05:19:10.814Z,98713.19
2023-02-27T05:21:45.210Z,98701.59
2023-02-27T05:24:22.996Z,98710.19
2023-02-27T05:27:16.169Z,98709.81
2023-02-27T05:29:50.679Z,98708.69
2023-02-27T05:32:38.067Z,98709.53
2023-02-27T05:35:14.367Z,98709.88
2023-02-27T05:37:48.985Z,98718.69
2023-02-27T05:40:22.489Z,98714.00
2023-02-27T05:42:57.502Z,98708.63
2023-02-27T05:45:31.562Z,98714.84
2023-02-27T05:48:07.359Z,98710.97
2023-02-27T05:50:39.156Z,98709.06
2023-02-27T05:53:11.702Z,98712.13
2023-02-27T05:55:45.560Z,98713.34
2023-02-27T05:58:19.471Z,98720.25
2023-02-27T06:00:52.557Z,98714.53
2023-02-27T06:03:25.327Z,98716.94
2023-02-27T06:05:57.015Z,98725.03
2023-02-27T06:08:27.846Z,98723.88
2023-02-27T06:13:03.034Z,98726.19
2023-02-27T06:15:33.788Z,98741.69
2023-02-27T06:18:04.352Z,98738.28
2023-02-27T06:20:34.695Z,98732.09
2023-02-27T06:23:05.077Z,98737.16
2023-02-27T06:25:35.605Z,98750.41
2023-02-27T06:28:09.311Z,98749.28
2023-02-27T06:30:39.841Z,98749.69
2023-02-27T06:33:10.724Z,98757.50
2023-02-27T06:35:44.078Z,98762.19
2023-02-27T06:38:14.442Z,98764.69
2023-02-27T06:40:44.764Z,98769.75
2023-02-27T06:43:17.909Z,98766.38
2023-02-27T06:45:48.292Z,98770.41
2023-02-27T06:48:18.815Z,98775.06
2023-02-27T06:50:49.171Z,98774.66
2023-02-27T06:53:19.551Z,98775.19
2023-02-27T06:55:49.892Z,98782.75
2023-02-27T06:58:24.873Z,98781.25
2023-02-27T07:00:55.274Z,98775.16
2023-02-27T07:03:25.551Z,98782.16
2023-02-27T07:05:55.875Z,98778.38
2023-02-27T07:08:26.681Z,98787.25
2023-02-27T07:10:57.121Z,98779.53
2023-02-27T07:13:30.210Z,98788.22
2023-02-27T07:16:00.529Z,98791.00
2023-02-27T07:18:31.189Z,98788.03
2023-02-27T07:21:01.774Z,98801.44
2023-02-27T07:23:32.775Z,98808.59
2023-02-27T07:26:03.292Z,98797.44
2023-02-27T07:28:36.362Z,98797.88
2023-02-27T07:31:06.999Z,98797.84
2023-02-27T07:33:37.454Z,98797.41
2023-02-27T07:36:09.533Z,98801.13
2023-02-27T07:38:39.842Z,98791.38
2023-02-27T07:41:28.232Z,98788.22
2023-02-27T07:44:07.082Z,98786.56
2023-02-27T07:46:37.820Z,98784.41
2023-02-27T07:49:08.668Z,98777.63
2023-02-27T07:51:39.169Z,98783.44
2023-02-27T07:54:11.004Z,98776.34
2023-02-27T07:56:41.610Z,98765.25
2023-02-27T07:59:15.011Z,98776.09
2023-02-27T08:01:45.338Z,98779.25
2023-02-27T08:04:15.812Z,98774.50
2023-02-27T08:06:46.161Z,98782.09
2023-02-27T08:09:16.588Z,98773.88
2023-02-27T08:11:48.996Z,98782.50
2023-02-27T08:14:23.192Z,98780.56
2023-02-27T08:16:53.923Z,98781.38
2023-02-27T08:19:24.298Z,98793.56
2023-02-27T08:21:54.736Z,98792.47
2023-02-27T08:24:25.233Z,98787.00
2023-02-27T08:26:56.195Z,98788.53
2023-02-27T08:29:31.090Z,98784.66
2023-02-27T08:32:02.213Z,98797.56
2023-02-27T08:34:33.114Z,98795.97
2023-02-27T08:37:03.816Z,98790.06
2023-02-27T08:39:34.227Z,98802.16
2023-02-27T08:42:04.596Z,98801.34
2023-02-27T08:44:37.591Z,98795.81
2023-02-27T08:47:08.232Z,98796.56
2023-02-27T08:49:38.712Z,98807.44
2023-02-27T08:52:10.291Z,98805.50
2023-02-27T08:54:40.705Z,98803.91
2023-02-27T08:57:11.156Z,98810.22
2023-02-27T08:59:44.241Z,98814.19
2023-02-27T09:02:14.651Z,98808.72
2023-02-27T09:04:45.091Z,98814.22
2023-02-27T09:07:15.550Z,98822.81
2023-02-27T09:09:45.923Z,98818.09
2023-02-27T09:12:16.269Z,98827.09
2023-02-27T09:14:49.609Z,98829.81
2023-02-27T09:17:19.987Z,98831.38
2023-02-27T09:19:51.475Z,98822.69
2023-02-27T09:22:22.946Z,98825.38
2023-02-27T09:24:53.293Z,98837.03
2023-02-27T09:27:24.020Z,98838.06
2023-02-27T09:29:57.466Z,98829.69
2023-02-27T09:32:29.197Z,98827.13
2023-02-27T09:35:00.560Z,98824.03
2023-02-27T09:37:30.792Z,98837.00
2023-02-27T09:40:01.158Z,98824.97
2023-02-27T09:42:42.257Z,98819.41
2023-02-27T09:45:26.253Z,98826.38
2023-02-27T09:48:00.656Z,98826.03
2023-02-27T09:50:41.741Z,98810.38
2023-02-27T09:53:17.690Z,98817.91
2023-02-27T09:55:49.614Z,98820.13
2023-02-27T09:58:41.271Z,98818.38
2023-02-27T10:01:22.992Z,98820.06
2023-02-27T10:04:19.565Z,98818.50
2023-02-27T10:06:55.390Z,98827.13
2023-02-27T10:09:39.090Z,98827.78
2023-02-27T10:12:45.896Z,98842.66
2023-02-27T10:15:23.530Z,98842.63
2023-02-27T10:18:10.465Z,98842.38
2023-02-27T10:21:02.674Z,98841.38
2023-02-27T10:23:42.209Z,98850.91
2023-02-27T10:26:22.117Z,98850.75
2023-02-27T10:28:52.494Z,98852.63
2023-02-27T10:31:28.081Z,98856.72
2023-02-27T10:34:03.951Z,98855.75
2023-02-27T10:36:35.009Z,98853.91
2023-02-27T10:39:09.818Z,98866.47
2023-02-27T10:41:41.681Z,98866.56
2023-02-27T10:44:18.786Z,98871.31
2023-02-27T10:46:51.807Z,98868.22
2023-02-27T10:49:25.656Z,98871.75
2023-02-27T10:52:12.480Z,98869.44
2023-02-27T10:54:45.002Z,98865.50
2023-02-27T10:57:29.207Z,98865.50
2023-02-27T11:00:05.114Z,98858.84
2023-02-27T11:02:40.754Z,98853.31
2023-02-27T11:05:27.359Z,98850.88
2023-02-27T11:07:59.594Z,98845.34
2023-02-27T11:10:31.792Z,98850.38
2023-02-27T11:13:06.693Z,98847.69
2023-02-27T11:15:40.611Z,98845.66
2023-02-27T11:18:29.449Z,98845.22
2023-02-27T11:21:18.205Z,98843.50
2023-02-27T11:23:58.969Z,98845.75
2023-02-27T11:26:37.103Z,98837.94
2023-02-27T11:29:20.272Z,98842.22
2023-02-27T11:31:56.707Z,98847.66
2023-02-27T11:34:34.387Z,98840.88
2023-02-27T11:37:09.667Z,98847.88
2023-02-27T11:39:47.208Z,98840.34
2023-02-27T11:42:28.117Z,98839.16
2023-02-27T11:45:03.837Z,98834.91
2023-02-27T11:47:39.262Z,98836.97
2023-02-27T11:50:38.368Z,98844.59
2023-02-27T11:53:37.469Z,98844.31
2023-02-27T11:56:14.604Z,98833.94
2023-02-27T11:58:52.435Z,98830.44
2023-02-27T12:01:29.641Z,98842.19
2023-02-27T12:04:07.000Z,98840.63
2023-02-27T12:06:45.281Z,98835.94
2023-02-27T12:09:37.716Z,98834.78
2023-02-27T12:12:18.482Z,98838.28
2023-02-27T12:15:02.695Z,98846.13
2023-02-27T12:17:39.941Z,98832.41
2023-02-27T12:20:31.551Z,98830.41
2023-02-27T12:23:05.283Z,98830.00
2023-02-27T12:25:47.324Z,98832.34
2023-02-27T12:28:33.442Z,98830.75
2023-02-27T12:31:34.360Z,98826.47
2023-02-27T12:34:15.884Z,98831.16
2023-02-27T12:36:46.284Z,98829.94
2023-02-27T12:39:23.582Z,98826.75
2023-02-27T12:42:27.402Z,98829.31
2023-02-27T12:45:20.845Z,98821.75
2023-02-27T12:48:04.586Z,98821.69
2023-02-27T12:50:52.877Z,98828.63
2023-02-27T12:53:48.999Z,98817.00
2023-02-27T12:56:24.129Z,98824.47
2023-02-27T12:59:06.845Z,98825.63
2023-02-27T13:01:47.384Z,98820.09
2023-02-27T13:04:26.677Z,98810.28
2023-02-27T13:07:05.193Z,98820.56
2023-02-27T13:09:44.384Z,98821.38
2023-02-27T13:12:32.227Z,98814.22
2023-02-27T13:15:09.496Z,98810.03
2023-02-27T13:17:49.515Z,98805.06
2023-02-27T13:20:33.529Z,98811.09
2023-02-27T13:23:18.259Z,98807.84
2023-02-27T13:25:53.197Z,98813.00
2023-02-27T13:28:28.856Z,98812.09
2023-02-27T13:31:10.710Z,98811.22
2023-02-27T13:33:48.764Z,98810.50
2023-02-27T13:36:26.168Z,98809.03
2023-02-27T13:38:58.952Z,98802.56
2023-02-27T13:41:41.654Z,98790.72
2023-02-27T13:44:51.423Z,98800.31
2023-02-27T13:47:44.520Z,98784.94
2023-02-27T13:50:50.981Z,98790.25
2023-02-27T13:53:24.676Z,98795.72
2023-02-27T13:56:20.632Z,98802.22
2023-02-27T13:58:52.197Z,98803.94
2023-02-27T14:01:31.367Z,98799.53
2023-02-27T14:04:11.692Z,98800.72
2023-02-27T14:06:48.890Z,98800.94
2023-02-27T14:09:24.009Z,98796.06
2023-02-27T14:11:58.422Z,98789.34
2023-02-27T14:14:45.239Z,98795.56
2023-02-27T14:17:17.963Z,98791.34
2023-02-27T14:19:59.858Z,98794.72
2023-02-27T14:22:47.689Z,98798.06
2023-02-27T14:25:34.795Z,98803.81
2023-02-27T14:28:07.399Z,98802.81
2023-02-27T14:30:43.647Z,98802.06
2023-02-27T14:33:37.411Z,98804.22
2023-02-27T14:36:21.574Z,98803.97
2023-02-27T14:38:53.749Z,98808.09
2023-02-27T14:41:39.602Z,98808.69
2023-02-27T14:44:22.888Z,98809.78
2023-02-27T14:46:55.002Z,98806.91
2023-02-27T14:49:29.614Z,98806.59
2023-02-27T14:52:15.530Z,98818.13
2023-02-27T14:54:45.841Z,98819.41
2023-02-27T14:57:21.118Z,98825.22
2023-02-27T14:59:53.513Z,98822.13
2023-02-27T15:02:28.058Z,98826.47
2023-02-27T15:05:18.634Z,98815.78
2023-02-27T15:07:52.405Z,98813.59
2023-02-27T15:10:33.476Z,98820.38
2023-02-27T15:13:04.143Z,98827.72
2023-02-27T15:15:34.659Z,98823.13
2023-02-27T15:18:05.570Z,98834.31
2023-02-27T15:20:38.457Z,98833.00
2023-02-27T15:23:29.655Z,98830.63
2023-02-27T15:26:02.199Z,98827.34
2023-02-27T15:28:41.496Z,98836.88
2023-02-27T15:31:16.126Z,98836.97
2023-02-27T15:33:46.854Z,98833.59
2023-02-27T15:36:25.154Z,98841.56
2023-02-27T15:39:17.870Z,98844.06
2023-02-27T15:41:51.100Z,98839.06
2023-02-27T15:44:26.773Z,98842.69
2023-02-27T15:46:57.765Z,98842.75
2023-02-27T15:49:29.471Z,98836.94
2023-02-27T15:52:05.773Z,98845.28
2023-02-27T15:54:39.485Z,98848.44
2023-02-27T15:57:10.422Z,98851.25
2023-02-27T15:59:45.476Z,98859.94
2023-02-27T16:02:24.471Z,98862.69
2023-02-27T16:04:55.319Z,98858.81
2023-02-27T16:07:30.182Z,98861.97
2023-02-27T16:10:11.463Z,98866.25
2023-02-27T16:12:43.019Z,98862.75
2023-02-27T16:15:32.426Z,98870.97
2023-02-27T16:18:07.847Z,98869.81
2023-02-27T16:20:45.305Z,98874.50
2023-02-27T16:23:27.670Z,98870.63
2023-02-27T16:26:30.963Z,98880.78
2023-02-27T16:29:03.991Z,98882.34
2023-02-27T16:31:36.967Z,98883.88
2023-02-27T16:34:35.585Z,98885.47
2023-02-27T16:37:23.662Z,98878.44
2023-02-27T16:39:54.853Z,98884.66
2023-02-27T16:42:28.132Z,98878.03
2023-02-27T16:44:58.414Z,98875.28
2023-02-27T16:47:29.036Z,98882.72
2023-02-27T16:49:59.648Z,98887.03
2023-02-27T16:52:30.086Z,98881.94
2023-02-27T16:55:00.495Z,98889.75
2023-02-27T16:57:33.401Z,98887.38
2023-02-27T17:00:06.027Z,98892.47
2023-02-27T17:02:36.702Z,98905.34
2023-02-27T17:05:08.428Z,98908.84
2023-02-27T17:07:38.923Z,98904.56
2023-02-27T17:10:10.135Z,98911.16
2023-02-27T17:12:44.143Z,98909.59
2023-02-27T17:15:14.530Z,98912.31
2023-02-27T17:17:45.103Z,98909.56
2023-02-27T17:20:17.513Z,98914.63
2023-02-27T17:22:48.502Z,98912.66
2023-02-27T17:25:18.902Z,98918.53
2023-02-27T17:27:51.928Z,98921.25
2023-02-27T17:30:23.560Z,98919.28
2023-02-27T17:32:53.830Z,98920.44
2023-02-27T17:35:25.777Z,98932.16
2023-02-27T17:37:56.107Z,98929.84
2023-02-27T17:40:26.525Z,98927.44
2023-02-27T17:42:59.769Z,98927.84
2023-02-27T17:45:30.441Z,98921.22
2023-02-27T17:48:00.826Z,98922.00
2023-02-27T17:50:32.152Z,98931.34
2023-02-27T17:53:02.248Z,98935.22
2023-02-27T17:55:32.612Z,98935.22
2023-02-27T17:58:08.250Z,98933.66
2023-02-27T18:00:38.698Z,98936.78
2023-02-27T18:03:09.574Z,98937.94
2023-02-27T18:05:40.048Z,98942.22
2023-02-27T18:08:13.703Z,98938.31
2023-02-27T18:10:44.584Z,98949.22
2023-02-27T18:13:17.897Z,98935.56
2023-02-27T18:15:49.013Z,98941.41
2023-02-27T18:18:19.529Z,98938.25
2023-02-27T18:20:50.061Z,98937.50
2023-02-27T18:23:20.604Z,98949.56
2023-02-27T18:26:00.878Z,98942.19
2023-02-27T18:28:34.204Z,98940.59
2023-02-27T18:31:04.624Z,98947.22
2023-02-27T18:33:35.834Z,98942.53
2023-02-27T18:36:08.002Z,98943.28
2023-02-27T18:38:39.330Z,98946.03
2023-02-27T18:41:09.721Z,98947.22
2023-02-27T18:43:43.918Z,98946.81
2023-02-27T18:46:17.596Z,98949.13
2023-02-27T18:48:49.295Z,98949.13
2023-02-27T18:51:20.805Z,98945.63
2023-02-27T18:53:53.553Z,98944.44
2023-02-27T18:56:27.528Z,98949.13
2023-02-27T18:59:05.492Z,98943.66
2023-02-27T19:01:39.000Z,98944.00
2023-02-27T19:04:11.519Z,98945.13
2023-02-27T19:06:44.947Z,98949.75
2023-02-27T19:09:21.641Z,98950.09
2023-02-27T19:11:52.558Z,98950.47
2023-02-27T19:14:25.627Z,98957.44
2023-02-27T19:16:56.759Z,98953.06
2023-02-27T19:19:28.369Z,98951.06
2023-02-27T19:21:58.951Z,98956.09
2023-02-27T19:24:32.186Z,98954.50
2023-02-27T19:27:02.591Z,98958.78
2023-02-27T19:29:35.642Z,98964.63
2023-02-27T19:32:07.723Z,98958.00
2023-02-27T19:34:38.138Z,98955.63
2023-02-27T19:37:08.785Z,98958.38
2023-02-27T19:39:39.404Z,98963.03
2023-02-27T19:42:09.858Z,98958.38
2023-02-27T19:44:43.354Z,98961.09
2023-02-27T19:47:13.876Z,98962.69
2023-02-27T19:49:44.412Z,98963.84
2023-02-27T19:52:15.210Z,98961.09
2023-02-27T19:54:45.586Z,98960.66
2023-02-27T19:57:16.004Z,98958.72
2023-02-27T19:59:49.023Z,98960.66
2023-02-27T20:02:19.368Z,98963.00
2023-02-27T20:04:49.867Z,98962.59
2023-02-27T20:07:24.079Z,98965.34
2023-02-27T20:09:57.686Z,98963.41
2023-02-27T20:12:28.879Z,98966.53
2023-02-27T20:15:08.213Z,98967.69
2023-02-27T20:17:38.798Z,98959.50
2023-02-27T20:20:12.314Z,98970.47
2023-02-27T20:22:46.479Z,98974.38
2023-02-27T20:25:16.979Z,98967.78
2023-02-27T20:27:47.673Z,98970.56
2023-02-27T20:30:21.020Z,98968.97
2023-02-27T20:32:53.729Z,98967.81
2023-02-27T20:35:24.128Z,98970.56
2023-02-27T20:37:54.457Z,98968.63
2023-02-27T20:40:26.125Z,98963.97
2023-02-27T20:42:56.982Z,98966.66
2023-02-27T20:45:30.700Z,98963.16
2023-02-27T20:48:01.144Z,98966.66
2023-02-27T20:50:31.575Z,98969.41
2023-02-27T20:53:02.104Z,98966.31
2023-02-27T20:55:32.607Z,98964.75
2023-02-27T20:58:03.284Z,98965.91
2023-02-27T21:00:36.345Z,98968.19
2023-02-27T21:03:07.209Z,98972.94
2023-02-27T21:05:37.738Z,98965.47
2023-02-27T21:08:08.540Z,98965.06
2023-02-27T21:10:41.623Z,98970.91
2023-02-27T21:13:15.003Z,98967.81
2023-02-27T21:15:48.910Z,98972.94
2023-02-27T21:18:19.323Z,98966.69
2023-02-27T21:20:49.747Z,98965.19
2023-02-27T21:23:20.211Z,98973.72
2023-02-27T21:25:52.369Z,98971.78
2023-02-27T21:28:22.758Z,98973.72
2023-02-27T21:30:58.448Z,98969.06
2023-02-27T21:33:28.968Z,98973.72
2023-02-27T21:35:59.511Z,98970.56
2023-02-27T21:38:31.010Z,98972.94
2023-02-27T21:41:01.506Z,98975.31
2023-02-27T21:43:31.870Z,98971.44
2023-02-27T21:46:08.034Z,98975.34
2023-02-27T21:48:38.850Z,98970.28
2023-02-27T21:51:10.366Z,98967.56
2023-02-27T21:53:40.892Z,98972.66
2023-02-27T21:56:13.330Z,98976.16
2023-02-27T21:58:43.643Z,98974.22
2023-02-27T22:01:24.608Z,98972.28
2023-02-27T22:03:57.074Z,98970.34
2023-02-27T22:06:31.472Z,98972.28
2023-02-27T22:09:04.952Z,98969.56
2023-02-27T22:11:37.635Z,98967.59
2023-02-27T22:14:10.462Z,98975.00
2023-02-27T22:16:43.494Z,98976.97
2023-02-27T22:19:19.867Z,98972.69
2023-02-27T22:21:51.714Z,98976.94
2023-02-27T22:24:22.423Z,98971.47
2023-02-27T22:26:52.911Z,98975.34
2023-02-27T22:29:23.488Z,98973.00
2023-02-27T22:31:56.865Z,98973.81
2023-02-27T22:34:29.490Z,98978.09
2023-02-27T22:37:00.108Z,98969.13
2023-02-27T22:39:31.597Z,98967.56
2023-02-27T22:42:02.103Z,98968.75
2023-02-27T22:44:33.445Z,98969.91
2023-02-27T22:47:06.553Z,98972.22
2023-02-27T22:49:37.223Z,98973.34
2023-02-27T22:52:08.878Z,98970.97
2023-02-27T22:54:39.222Z,98968.63
2023-02-27T22:57:12.998Z,98971.72
2023-02-27T22:59:43.885Z,98972.84
2023-02-27T23:02:17.632Z,98972.41
2023-02-27T23:04:53.035Z,98974.38
2023-02-27T23:07:25.634Z,98973.63
2023-02-27T23:10:02.994Z,98976.34
2023-02-27T23:12:35.595Z,98982.16
2023-02-27T23:15:17.843Z,98980.59
2023-02-27T23:17:58.270Z,98979.06
2023-02-27T23:20:30.671Z,98986.84
2023-02-27T23:23:02.367Z,98979.44
2023-02-27T23:25:42.061Z,98985.69
2023-02-27T23:28:14.904Z,98979.06
2023-02-27T23:30:46.959Z,98990.00
2023-02-27T23:33:20.263Z,98986.50
2023-02-27T23:35:50.791Z,98995.81
2023-02-27T23:38:21.930Z,98986.06
2023-02-27T23:40:52.470Z,98988.34
2023-02-27T23:43:35.456Z,98979.81
2023-02-27T23:46:10.198Z,98991.88
2023-02-27T23:48:43.812Z,98992.28
2023-02-27T23:51:15.209Z,98990.31
2023-02-27T23:53:46.499Z,98989.16
2023-02-27T23:56:19.482Z,98998.47
2023-02-27T23:58:51.493Z,98996.53
